Meteo Giornale » Osservazioni meteo Stati Uniti (USA) » Van Nuys

ore: 09:51 - Osservazioni Meteo Van Nuys
Lat. 34° 12' N Lon. 118° 29' W Alt. 243 metri s.l.m.

sereno

22 °C

Sereno

Temp. 24 Ore

16 °C

31 °C

Sud

11.1 Km/h

Dew point 15 °C

Umidità 64 %

Visibilità  10 Km

Il sole sorge alle ore 06:27

Il sole tramonta alle ore 19:20

Data e Ora Cielo e Fenomeni T °C DP °C Um. % Pres. hPa Vis. km Vento km/h
Oggi h: 09:51 sereno Sereno 22 15 64 1015 10 S 11.1
Oggi h: 08:51 sereno Sereno 19 15 77 1015 10 N 0
Oggi h: 07:51 sereno Sereno 18 13 72 1015 10 N 0
Oggi h: 06:51 sereno Sereno 16 14 87 1014 10 N 0
Oggi h: 05:51 sereno Sereno 17 14 82 1014 10 N 0
Oggi h: 04:51 sereno Sereno 17 15 88 1014 10 N 0
Oggi h: 03:51 sereno Sereno 17 15 88 1014 10 E/SE 7.4
Oggi h: 02:51 sereno Sereno 18 15 82 1014 10 N 5.5
Oggi h: 01:51 sereno Sereno 18 15 82 1014 10 N 5.5
Oggi h: 00:51 sereno Sereno 18 15 82 1014 10 E 7.4
Ieri h: 23:51 sereno Sereno 19 14 72 1014 10 E/SE 9.3
Ieri h: 22:51 sereno Sereno 21 13 60 1014 10 E 7.4
Ieri h: 21:51 sereno Sereno 22 11 49 1013 10 N 0
Ieri h: 20:51 sereno Sereno 22 12 53 1012 10 N 5.5
Ieri h: 18:51 sereno Sereno 26 9 34 1011 10 E/SE 13
Ieri h: 17:51 sereno Sereno 29 8 26 1011 10 SE 16.7
Ieri h: 16:51 sereno Sereno 31 7 22 1011 10 S/SE 20.3
Ieri h: 15:51 sereno Sereno 31 11 29 1011 10 SE 24
Ieri h: 13:51 sereno Sereno 30 13 35 1012 10 S/SE 22.2
Ieri h: 12:51 sereno Sereno 29 15 42 1013 10 SE 16.7
Ieri h: 11:51 sereno Sereno 28 17 51 1013 10 N 7.4
Ieri h: 10:51 sereno Sereno 27 17 54 1014 10 N 0